sensor_id;sensor_type;location;lat;lon;timestamp;P1;P2;P0
44871;PMS7003;30602;51.060;17.226;2023-12-20T00:00:55;17;14;10
44871;PMS7003;30602;51.060;17.226;2023-12-20T00:04:32;17;12;10
44871;PMS7003;30602;51.060;17.226;2023-12-20T00:08:43;14;13;10
44871;PMS7003;30602;51.060;17.226;2023-12-20T00:12:45;62;48;30
44871;PMS7003;30602;51.060;17.226;2023-12-20T00:16:35;41;39;24
44871;PMS7003;30602;51.060;17.226;2023-12-20T00:20:30;45;33;21
44871;PMS7003;30602;51.060;17.226;2023-12-20T00:24:40;36;33;16
44871;PMS7003;30602;51.060;17.226;2023-12-20T00:28:23;21;19;13
44871;PMS7003;30602;51.060;17.226;2023-12-20T00:32:58;25;20;14
44871;PMS7003;30602;51.060;17.226;2023-12-20T00:36:55;21;19;13
44871;PMS7003;30602;51.060;17.226;2023-12-20T00:40:50;21;17;13
44871;PMS7003;30602;51.060;17.226;2023-12-20T00:44:35;27;20;11
44871;PMS7003;30602;51.060;17.226;2023-12-20T00:48:11;23;21;14
44871;PMS7003;30602;51.060;17.226;2023-12-20T00:52:05;30;28;19
44871;PMS7003;30602;51.060;17.226;2023-12-20T00:55:51;31;28;20
44871;PMS7003;30602;51.060;17.226;2023-12-20T00:59:16;32;27;17
44871;PMS7003;30602;51.060;17.226;2023-12-20T01:03:53;27;24;16
44871;PMS7003;30602;51.060;17.226;2023-12-20T01:07:55;22;19;13
44871;PMS7003;30602;51.060;17.226;2023-12-20T01:11:20;21;17;13
44871;PMS7003;30602;51.060;17.226;2023-12-20T01:15:02;24;19;12
44871;PMS7003;30602;51.060;17.226;2023-12-20T01:18:50;25;21;13
44871;PMS7003;30602;51.060;17.226;2023-12-20T01:22:15;21;19;13
44871;PMS7003;30602;51.060;17.226;2023-12-20T01:26:34;22;17;12
44871;PMS7003;30602;51.060;17.226;2023-12-20T01:29:58;21;18;12
44871;PMS7003;30602;51.060;17.226;2023-12-20T01:33:31;19;16;12
44871;PMS7003;30602;51.060;17.226;2023-12-20T01:38:00;22;18;14
44871;PMS7003;30602;51.060;17.226;2023-12-20T01:41:42;30;23;15
44871;PMS7003;30602;51.060;17.226;2023-12-20T01:45:13;34;30;17
44871;PMS7003;30602;51.060;17.226;2023-12-20T01:49:25;22;19;11
44871;PMS7003;30602;51.060;17.226;2023-12-20T01:53:11;20;15;11
44871;PMS7003;30602;51.060;17.226;2023-12-20T01:57:36;16;15;11
44871;PMS7003;30602;51.060;17.226;2023-12-20T02:11:57;23;20;12
44871;PMS7003;30602;51.060;17.226;2023-12-20T02:15:42;18;11;7
44871;PMS7003;30602;51.060;17.226;2023-12-20T02:23:43;14;14;9
44871;PMS7003;30602;51.060;17.226;2023-12-20T02:27:36;16;16;11
44871;PMS7003;30602;51.060;17.226;2023-12-20T02:31:21;19;17;11
44871;PMS7003;30602;51.060;17.226;2023-12-20T02:34:49;16;13;10
44871;PMS7003;30602;51.060;17.226;2023-12-20T02:38:35;15;14;9
44871;PMS7003;30602;51.060;17.226;2023-12-20T02:42:30;16;16;11
44871;PMS7003;30602;51.060;17.226;2023-12-20T02:46:09;23;18;11
44871;PMS7003;30602;51.060;17.226;2023-12-20T02:49:54;24;18;11
44871;PMS7003;30602;51.060;17.226;2023-12-20T02:53:53;22;16;11
44871;PMS7003;30602;51.060;17.226;2023-12-20T02:57:18;18;17;10
44871;PMS7003;30602;51.060;17.226;2023-12-20T03:00:51;18;16;12
44871;PMS7003;30602;51.060;17.226;2023-12-20T03:04:45;16;14;10
44871;PMS7003;30602;51.060;17.226;2023-12-20T03:08:28;14;13;9
44871;PMS7003;30602;51.060;17.226;2023-12-20T03:12:15;20;16;10
44871;PMS7003;30602;51.060;17.226;2023-12-20T03:16:00;15;12;8
44871;PMS7003;30602;51.060;17.226;2023-12-20T03:19:22;13;12;9
44871;PMS7003;30602;51.060;17.226;2023-12-20T03:23:42;14;12;9
44871;PMS7003;30602;51.060;17.226;2023-12-20T03:27:06;15;14;8
44871;PMS7003;30602;51.060;17.226;2023-12-20T03:31:03;9;7;5
44871;PMS7003;30602;51.060;17.226;2023-12-20T03:35:38;8;8;6
44871;PMS7003;30602;51.060;17.226;2023-12-20T03:39:44;5;5;3
44871;PMS7003;30602;51.060;17.226;2023-12-20T03:44:08;9;5;3
44871;PMS7003;30602;51.060;17.226;2023-12-20T03:48:35;6;3;3
44871;PMS7003;30602;51.060;17.226;2023-12-20T03:52:12;7;6;2
44871;PMS7003;30602;51.060;17.226;2023-12-20T03:55:35;4;1;0
44871;PMS7003;30602;51.060;17.226;2023-12-20T03:58:59;3;3;1
44871;PMS7003;30602;51.060;17.226;2023-12-20T04:02:25;2;2;1
44871;PMS7003;30602;51.060;17.226;2023-12-20T04:06:02;2;1;1
44871;PMS7003;30602;51.060;17.226;2023-12-20T04:09:36;2;2;2
44871;PMS7003;30602;51.060;17.226;2023-12-20T04:13:21;1;1;1
44871;PMS7003;30602;51.060;17.226;2023-12-20T04:17:05;1;1;0
44871;PMS7003;30602;51.060;17.226;2023-12-20T04:20:59;1;1;0
44871;PMS7003;30602;51.060;17.226;2023-12-20T04:24:43;4;3;1
44871;PMS7003;30602;51.060;17.226;2023-12-20T04:29:13;4;2;1
44871;PMS7003;30602;51.060;17.226;2023-12-20T04:32:37;1;1;0
44871;PMS7003;30602;51.060;17.226;2023-12-20T04:36:24;1;1;1
44871;PMS7003;30602;51.060;17.226;2023-12-20T04:40:15;0;0;0
44871;PMS7003;30602;51.060;17.226;2023-12-20T04:43:53;4;1;0
44871;PMS7003;30602;51.060;17.226;2023-12-20T04:47:17;4;2;1
44871;PMS7003;30602;51.060;17.226;2023-12-20T04:50:59;0;0;0
44871;PMS7003;30602;51.060;17.226;2023-12-20T04:54:45;0;0;0
44871;PMS7003;30602;51.060;17.226;2023-12-20T04:58:09;1;1;0
44871;PMS7003;30602;51.060;17.226;2023-12-20T05:01:33;0;0;0
44871;PMS7003;30602;51.060;17.226;2023-12-20T05:06:29;2;0;0
44871;PMS7003;30602;51.060;17.226;2023-12-20T05:10:03;0;0;0
44871;PMS7003;30602;51.060;17.226;2023-12-20T05:13:26;1;1;0
44871;PMS7003;30602;51.060;17.226;2023-12-20T05:17:09;0;0;0
44871;PMS7003;30602;51.060;17.226;2023-12-20T05:21:14;0;0;0
44871;PMS7003;30602;51.060;17.226;2023-12-20T05:25:06;0;0;0
44871;PMS7003;30602;51.060;17.226;2023-12-20T05:28:48;0;0;0
44871;PMS7003;30602;51.060;17.226;2023-12-20T05:32:43;3;2;1
44871;PMS7003;30602;51.060;17.226;2023-12-20T05:37:09;4;3;1
44871;PMS7003;30602;51.060;17.226;2023-12-20T05:43:22;7;5;3
44871;PMS7003;30602;51.060;17.226;2023-12-20T05:47:44;17;14;6
44871;PMS7003;30602;51.060;17.226;2023-12-20T05:51:35;55;43;23
44871;PMS7003;30602;51.060;17.226;2023-12-20T05:55:18;75;55;31
44871;PMS7003;30602;51.060;17.226;2023-12-20T06:02:46;71;55;30
44871;PMS7003;30602;51.060;17.226;2023-12-20T06:06:43;64;47;27
44871;PMS7003;30602;51.060;17.226;2023-12-20T06:10:24;84;62;34
44871;PMS7003;30602;51.060;17.226;2023-12-20T06:14:00;89;67;37
44871;PMS7003;30602;51.060;17.226;2023-12-20T06:18:03;54;39;23
44871;PMS7003;30602;51.060;17.226;2023-12-20T06:21:24;46;40;21
44871;PMS7003;30602;51.060;17.226;2023-12-20T06:25:22;36;32;20
44871;PMS7003;30602;51.060;17.226;2023-12-20T06:29:39;34;25;14
44871;PMS7003;30602;51.060;17.226;2023-12-20T06:33:36;34;29;19
44871;PMS7003;30602;51.060;17.226;2023-12-20T06:37:34;17;12;7
44871;PMS7003;30602;51.060;17.226;2023-12-20T06:41:13;23;20;12
44871;PMS7003;30602;51.060;17.226;2023-12-20T06:44:45;27;23;13
44871;PMS7003;30602;51.060;17.226;2023-12-20T06:48:26;16;10;9
44871;PMS7003;30602;51.060;17.226;2023-12-20T06:52:01;32;29;18
44871;PMS7003;30602;51.060;17.226;2023-12-20T06:56:12;29;24;14
44871;PMS7003;30602;51.060;17.226;2023-12-20T06:59:48;10;8;7
44871;PMS7003;30602;51.060;17.226;2023-12-20T07:03:30;9;7;5
44871;PMS7003;30602;51.060;17.226;2023-12-20T07:07:24;6;6;5
44871;PMS7003;30602;51.060;17.226;2023-12-20T07:10:59;11;9;6
44871;PMS7003;30602;51.060;17.226;2023-12-20T07:14:46;11;10;6
44871;PMS7003;30602;51.060;17.226;2023-12-20T07:18:32;12;9;7
44871;PMS7003;30602;51.060;17.226;2023-12-20T07:22:08;9;7;5
44871;PMS7003;30602;51.060;17.226;2023-12-20T07:25:59;9;8;5
44871;PMS7003;30602;51.060;17.226;2023-12-20T07:29:30;8;5;3
44871;PMS7003;30602;51.060;17.226;2023-12-20T07:32:52;5;5;3
44871;PMS7003;30602;51.060;17.226;2023-12-20T07:36:35;11;8;5
44871;PMS7003;30602;51.060;17.226;2023-12-20T07:40:09;14;10;7
44871;PMS7003;30602;51.060;17.226;2023-12-20T07:43:34;24;19;12
44871;PMS7003;30602;51.060;17.226;2023-12-20T07:47:32;13;10;5
44871;PMS7003;30602;51.060;17.226;2023-12-20T07:51:16;11;9;6
44871;PMS7003;30602;51.060;17.226;2023-12-20T07:55:29;16;11;8
44871;PMS7003;30602;51.060;17.226;2023-12-20T07:58:54;9;6;3
44871;PMS7003;30602;51.060;17.226;2023-12-20T08:02:35;8;4;3
44871;PMS7003;30602;51.060;17.226;2023-12-20T08:06:30;7;5;4
44871;PMS7003;30602;51.060;17.226;2023-12-20T08:10:03;6;5;3
44871;PMS7003;30602;51.060;17.226;2023-12-20T08:13:27;7;4;2
44871;PMS7003;30602;51.060;17.226;2023-12-20T08:17:10;8;4;4
44871;PMS7003;30602;51.060;17.226;2023-12-20T08:20:57;3;0;0
44871;PMS7003;30602;51.060;17.226;2023-12-20T08:24:52;7;7;3
44871;PMS7003;30602;51.060;17.226;2023-12-20T08:28:41;13;10;6
44871;PMS7003;30602;51.060;17.226;2023-12-20T08:32:34;6;5;3
44871;PMS7003;30602;51.060;17.226;2023-12-20T08:36:04;3;3;2
44871;PMS7003;30602;51.060;17.226;2023-12-20T08:39:28;3;1;0
44871;PMS7003;30602;51.060;17.226;2023-12-20T08:46:43;2;1;0
44871;PMS7003;30602;51.060;17.226;2023-12-20T08:50:03;2;1;0
44871;PMS7003;30602;51.060;17.226;2023-12-20T08:53:28;2;1;0
44871;PMS7003;30602;51.060;17.226;2023-12-20T08:56:53;6;5;3
44871;PMS7003;30602;51.060;17.226;2023-12-20T09:00:17;6;2;2
44871;PMS7003;30602;51.060;17.226;2023-12-20T09:04:44;5;1;0
44871;PMS7003;30602;51.060;17.226;2023-12-20T09:08:51;1;0;0
44871;PMS7003;30602;51.060;17.226;2023-12-20T09:12:33;5;1;1
44871;PMS7003;30602;51.060;17.226;2023-12-20T09:15:56;2;2;0
44871;PMS7003;30602;51.060;17.226;2023-12-20T09:19:48;3;2;0
44871;PMS7003;30602;51.060;17.226;2023-12-20T09:23:12;3;3;1
44871;PMS7003;30602;51.060;17.226;2023-12-20T09:26:45;3;2;1
44871;PMS7003;30602;51.060;17.226;2023-12-20T09:30:33;5;3;2
44871;PMS7003;30602;51.060;17.226;2023-12-20T09:34:31;7;5;4
44871;PMS7003;30602;51.060;17.226;2023-12-20T09:37:55;2;2;2
44871;PMS7003;30602;51.060;17.226;2023-12-20T09:41:18;1;1;1
44871;PMS7003;30602;51.060;17.226;2023-12-20T09:45:02;5;4;1
44871;PMS7003;30602;51.060;17.226;2023-12-20T09:48:25;5;1;0
44871;PMS7003;30602;51.060;17.226;2023-12-20T09:52:36;5;3;1
44871;PMS7003;30602;51.060;17.226;2023-12-20T09:56:03;4;2;0
44871;PMS7003;30602;51.060;17.226;2023-12-20T09:59:28;2;0;0
44871;PMS7003;30602;51.060;17.226;2023-12-20T10:03:02;4;3;1
44871;PMS7003;30602;51.060;17.226;2023-12-20T10:07:20;5;4;2
44871;PMS7003;30602;51.060;17.226;2023-12-20T10:10:48;4;3;1
44871;PMS7003;30602;51.060;17.226;2023-12-20T10:14:10;4;2;2
44871;PMS7003;30602;51.060;17.226;2023-12-20T10:18:04;3;1;0
44871;PMS7003;30602;51.060;17.226;2023-12-20T10:21:29;5;2;1
44871;PMS7003;30602;51.060;17.226;2023-12-20T10:24:50;2;1;0
44871;PMS7003;30602;51.060;17.226;2023-12-20T10:28:12;3;2;0
44871;PMS7003;30602;51.060;17.226;2023-12-20T10:31:50;5;3;2
44871;PMS7003;30602;51.060;17.226;2023-12-20T10:35:57;1;1;0
44871;PMS7003;30602;51.060;17.226;2023-12-20T10:39:29;1;1;0
44871;PMS7003;30602;51.060;17.226;2023-12-20T10:42:50;3;2;0
44871;PMS7003;30602;51.060;17.226;2023-12-20T10:46:10;1;0;0
44871;PMS7003;30602;51.060;17.226;2023-12-20T10:49:30;2;1;0
44871;PMS7003;30602;51.060;17.226;2023-12-20T10:53:14;2;2;1
44871;PMS7003;30602;51.060;17.226;2023-12-20T10:57:33;1;1;0
44871;PMS7003;30602;51.060;17.226;2023-12-20T11:01:01;4;2;2
44871;PMS7003;30602;51.060;17.226;2023-12-20T11:04:25;5;3;2
44871;PMS7003;30602;51.060;17.226;2023-12-20T11:09:03;2;1;1
44871;PMS7003;30602;51.060;17.226;2023-12-20T11:16:29;4;4;2
44871;PMS7003;30602;51.060;17.226;2023-12-20T11:20:05;4;4;2
44871;PMS7003;30602;51.060;17.226;2023-12-20T11:24:01;3;3;1
44871;PMS7003;30602;51.060;17.226;2023-12-20T11:27:25;3;1;0
44871;PMS7003;30602;51.060;17.226;2023-12-20T11:31:34;2;2;1
44871;PMS7003;30602;51.060;17.226;2023-12-20T11:38:58;4;3;2
44871;PMS7003;30602;51.060;17.226;2023-12-20T11:42:21;6;5;3
44871;PMS7003;30602;51.060;17.226;2023-12-20T11:45:48;4;4;3
44871;PMS7003;30602;51.060;17.226;2023-12-20T11:49:37;8;5;3
44871;PMS7003;30602;51.060;17.226;2023-12-20T11:53:21;2;2;1
44871;PMS7003;30602;51.060;17.226;2023-12-20T11:56:40;2;1;0
44871;PMS7003;30602;51.060;17.226;2023-12-20T12:00:04;3;3;1
44871;PMS7003;30602;51.060;17.226;2023-12-20T12:07:23;4;2;1
44871;PMS7003;30602;51.060;17.226;2023-12-20T12:10:44;3;2;1
44871;PMS7003;30602;51.060;17.226;2023-12-20T12:14:25;3;2;0
44871;PMS7003;30602;51.060;17.226;2023-12-20T12:22:11;3;3;1
44871;PMS7003;30602;51.060;17.226;2023-12-20T12:25:36;2;2;1
44871;PMS7003;30602;51.060;17.226;2023-12-20T12:29:08;7;3;1
44871;PMS7003;30602;51.060;17.226;2023-12-20T12:32:59;1;1;1
44871;PMS7003;30602;51.060;17.226;2023-12-20T12:37:27;2;1;0
44871;PMS7003;30602;51.060;17.226;2023-12-20T12:41:57;4;2;1
44871;PMS7003;30602;51.060;17.226;2023-12-20T12:45:15;4;3;2
44871;PMS7003;30602;51.060;17.226;2023-12-20T12:49:31;3;1;0
44871;PMS7003;30602;51.060;17.226;2023-12-20T12:52:51;10;6;3
44871;PMS7003;30602;51.060;17.226;2023-12-20T12:56:37;4;3;3
44871;PMS7003;30602;51.060;17.226;2023-12-20T13:00:23;5;3;2
44871;PMS7003;30602;51.060;17.226;2023-12-20T13:04:06;9;8;6
44871;PMS7003;30602;51.060;17.226;2023-12-20T13:07:38;4;3;2
44871;PMS7003;30602;51.060;17.226;2023-12-20T13:11:03;7;6;5
44871;PMS7003;30602;51.060;17.226;2023-12-20T13:14:23;10;9;6
44871;PMS7003;30602;51.060;17.226;2023-12-20T13:17:44;8;7;5
44871;PMS7003;30602;51.060;17.226;2023-12-20T13:21:09;12;12;8
44871;PMS7003;30602;51.060;17.226;2023-12-20T13:24:33;8;7;4
44871;PMS7003;30602;51.060;17.226;2023-12-20T13:28:18;3;2;2
44871;PMS7003;30602;51.060;17.226;2023-12-20T13:32:02;4;4;2
44871;PMS7003;30602;51.060;17.226;2023-12-20T13:35:35;9;7;5
44871;PMS7003;30602;51.060;17.226;2023-12-20T13:39:31;6;6;4
44871;PMS7003;30602;51.060;17.226;2023-12-20T13:43:40;5;4;2
44871;PMS7003;30602;51.060;17.226;2023-12-20T13:48:10;6;6;5
44871;PMS7003;30602;51.060;17.226;2023-12-20T13:55:48;11;10;6
44871;PMS7003;30602;51.060;17.226;2023-12-20T13:59:23;14;12;9
44871;PMS7003;30602;51.060;17.226;2023-12-20T14:02:47;10;4;2
44871;PMS7003;30602;51.060;17.226;2023-12-20T14:06:13;15;14;10
44871;PMS7003;30602;51.060;17.226;2023-12-20T14:09:40;14;13;9
44871;PMS7003;30602;51.060;17.226;2023-12-20T14:13:07;12;11;8
44871;PMS7003;30602;51.060;17.226;2023-12-20T14:17:06;5;3;2
44871;PMS7003;30602;51.060;17.226;2023-12-20T14:21:03;5;5;3
44871;PMS7003;30602;51.060;17.226;2023-12-20T14:24:39;8;3;2
44871;PMS7003;30602;51.060;17.226;2023-12-20T14:27:59;2;1;1
44871;PMS7003;30602;51.060;17.226;2023-12-20T14:31:41;5;5;3
44871;PMS7003;30602;51.060;17.226;2023-12-20T14:35:06;5;5;2
44871;PMS7003;30602;51.060;17.226;2023-12-20T14:38:34;14;10;7
44871;PMS7003;30602;51.060;17.226;2023-12-20T14:41:58;25;23;15
44871;PMS7003;30602;51.060;17.226;2023-12-20T14:45:23;7;6;4
44871;PMS7003;30602;51.060;17.226;2023-12-20T14:48:47;5;3;2
44871;PMS7003;30602;51.060;17.226;2023-12-20T14:56:32;6;4;2
44871;PMS7003;30602;51.060;17.226;2023-12-20T14:59:54;5;5;3
44871;PMS7003;30602;51.060;17.226;2023-12-20T15:03:39;4;3;2
44871;PMS7003;30602;51.060;17.226;2023-12-20T15:11:10;5;5;2
44871;PMS7003;30602;51.060;17.226;2023-12-20T15:14:35;3;1;1
44871;PMS7003;30602;51.060;17.226;2023-12-20T15:18:34;6;3;1
44871;PMS7003;30602;51.060;17.226;2023-12-20T15:22:23;5;2;1
44871;PMS7003;30602;51.060;17.226;2023-12-20T15:26:27;4;2;1
44871;PMS7003;30602;51.060;17.226;2023-12-20T15:30:24;2;1;0
44871;PMS7003;30602;51.060;17.226;2023-12-20T15:33:44;1;1;1
44871;PMS7003;30602;51.060;17.226;2023-12-20T15:37:26;4;2;1
44871;PMS7003;30602;51.060;17.226;2023-12-20T15:41:01;9;6;2
44871;PMS7003;30602;51.060;17.226;2023-12-20T15:44:49;3;3;1
44871;PMS7003;30602;51.060;17.226;2023-12-20T15:48:50;3;3;1
44871;PMS7003;30602;51.060;17.226;2023-12-20T15:52:43;10;10;7
44871;PMS7003;30602;51.060;17.226;2023-12-20T15:56:21;11;7;5
44871;PMS7003;30602;51.060;17.226;2023-12-20T16:00:12;12;8;6
44871;PMS7003;30602;51.060;17.226;2023-12-20T16:04:13;5;5;3
44871;PMS7003;30602;51.060;17.226;2023-12-20T16:07:34;9;6;4
44871;PMS7003;30602;51.060;17.226;2023-12-20T16:10:52;12;10;6
44871;PMS7003;30602;51.060;17.226;2023-12-20T16:14:55;28;21;11
44871;PMS7003;30602;51.060;17.226;2023-12-20T16:18:36;9;8;4
44871;PMS7003;30602;51.060;17.226;2023-12-20T16:22:59;10;6;4
44871;PMS7003;30602;51.060;17.226;2023-12-20T16:27:01;9;6;4
44871;PMS7003;30602;51.060;17.226;2023-12-20T16:30:44;5;5;3
44871;PMS7003;30602;51.060;17.226;2023-12-20T16:36:13;10;7;3
44871;PMS7003;30602;51.060;17.226;2023-12-20T16:39:41;5;4;3
44871;PMS7003;30602;51.060;17.226;2023-12-20T16:43:03;14;11;6
44871;PMS7003;30602;51.060;17.226;2023-12-20T16:47:12;5;5;4
44871;PMS7003;30602;51.060;17.226;2023-12-20T16:50:59;9;8;5
44871;PMS7003;30602;51.060;17.226;2023-12-20T16:55:08;14;11;8
44871;PMS7003;30602;51.060;17.226;2023-12-20T16:58:54;11;8;6
44871;PMS7003;30602;51.060;17.226;2023-12-20T17:02:19;9;8;6
44871;PMS7003;30602;51.060;17.226;2023-12-20T17:06:25;11;8;6
44871;PMS7003;30602;51.060;17.226;2023-12-20T17:10:21;13;10;7
44871;PMS7003;30602;51.060;17.226;2023-12-20T17:13:51;8;8;6
44871;PMS7003;30602;51.060;17.226;2023-12-20T17:17:26;9;7;4
44871;PMS7003;30602;51.060;17.226;2023-12-20T17:21:11;13;9;5
44871;PMS7003;30602;51.060;17.226;2023-12-20T17:25:09;13;11;7
44871;PMS7003;30602;51.060;17.226;2023-12-20T17:28:34;15;11;7
44871;PMS7003;30602;51.060;17.226;2023-12-20T17:33:03;19;13;9
44871;PMS7003;30602;51.060;17.226;2023-12-20T17:37:31;11;9;7
44871;PMS7003;30602;51.060;17.226;2023-12-20T17:41:15;15;13;10
44871;PMS7003;30602;51.060;17.226;2023-12-20T17:45:04;16;13;9
44871;PMS7003;30602;51.060;17.226;2023-12-20T17:48:45;13;12;9
44871;PMS7003;30602;51.060;17.226;2023-12-20T17:52:39;48;37;19
44871;PMS7003;30602;51.060;17.226;2023-12-20T17:56:58;53;42;25
44871;PMS7003;30602;51.060;17.226;2023-12-20T18:01:46;59;44;27
44871;PMS7003;30602;51.060;17.226;2023-12-20T18:05:10;68;50;31
44871;PMS7003;30602;51.060;17.226;2023-12-20T18:09:00;55;44;28
44871;PMS7003;30602;51.060;17.226;2023-12-20T18:13:01;16;13;8
44871;PMS7003;30602;51.060;17.226;2023-12-20T18:16:43;14;13;8
44871;PMS7003;30602;51.060;17.226;2023-12-20T18:20:08;26;21;11
44871;PMS7003;30602;51.060;17.226;2023-12-20T18:24:02;13;8;6
44871;PMS7003;30602;51.060;17.226;2023-12-20T18:27:36;11;9;7
44871;PMS7003;30602;51.060;17.226;2023-12-20T18:31:31;11;10;8
44871;PMS7003;30602;51.060;17.226;2023-12-20T18:35:46;8;6;5
44871;PMS7003;30602;51.060;17.226;2023-12-20T18:39:53;5;5;3
44871;PMS7003;30602;51.060;17.226;2023-12-20T18:43:56;4;4;3
44871;PMS7003;30602;51.060;17.226;2023-12-20T18:48:05;6;4;4
44871;PMS7003;30602;51.060;17.226;2023-12-20T18:51:45;7;7;5
44871;PMS7003;30602;51.060;17.226;2023-12-20T18:59:55;7;7;5
44871;PMS7003;30602;51.060;17.226;2023-12-20T19:03:38;9;8;5
44871;PMS7003;30602;51.060;17.226;2023-12-20T19:08:03;14;11;7
44871;PMS7003;30602;51.060;17.226;2023-12-20T19:12:04;38;25;14
44871;PMS7003;30602;51.060;17.226;2023-12-20T19:16:36;33;28;19
44871;PMS7003;30602;51.060;17.226;2023-12-20T19:19:58;10;8;6
44871;PMS7003;30602;51.060;17.226;2023-12-20T19:23:23;8;7;5
44871;PMS7003;30602;51.060;17.226;2023-12-20T19:27:09;17;17;11
44871;PMS7003;30602;51.060;17.226;2023-12-20T19:30:51;6;6;4
44871;PMS7003;30602;51.060;17.226;2023-12-20T19:34:43;5;3;3
44871;PMS7003;30602;51.060;17.226;2023-12-20T19:38:08;4;3;2
44871;PMS7003;30602;51.060;17.226;2023-12-20T19:41:51;18;13;8
44871;PMS7003;30602;51.060;17.226;2023-12-20T19:46:00;6;6;3
44871;PMS7003;30602;51.060;17.226;2023-12-20T19:49:20;8;8;4
44871;PMS7003;30602;51.060;17.226;2023-12-20T19:53:03;37;28;15
44871;PMS7003;30602;51.060;17.226;2023-12-20T19:56:50;23;19;11
44871;PMS7003;30602;51.060;17.226;2023-12-20T20:00:37;42;32;16
44871;PMS7003;30602;51.060;17.226;2023-12-20T20:05:06;38;29;15
44871;PMS7003;30602;51.060;17.226;2023-12-20T20:09:03;34;28;13
44871;PMS7003;30602;51.060;17.226;2023-12-20T20:13:42;62;46;27
44871;PMS7003;30602;51.060;17.226;2023-12-20T20:17:08;50;38;20
44871;PMS7003;30602;51.060;17.226;2023-12-20T20:21:00;33;28;15
44871;PMS7003;30602;51.060;17.226;2023-12-20T20:24:45;12;10;7
44871;PMS7003;30602;51.060;17.226;2023-12-20T20:28:42;10;8;6
44871;PMS7003;30602;51.060;17.226;2023-12-20T20:32:36;7;7;5
44871;PMS7003;30602;51.060;17.226;2023-12-20T20:36:33;14;12;7
44871;PMS7003;30602;51.060;17.226;2023-12-20T20:43:57;9;7;6
44871;PMS7003;30602;51.060;17.226;2023-12-20T20:48:02;3;3;2
44871;PMS7003;30602;51.060;17.226;2023-12-20T20:51:24;9;6;5
44871;PMS7003;30602;51.060;17.226;2023-12-20T20:55:08;12;11;7
44871;PMS7003;30602;51.060;17.226;2023-12-20T20:59:14;4;3;1
44871;PMS7003;30602;51.060;17.226;2023-12-20T21:02:55;7;4;3
44871;PMS7003;30602;51.060;17.226;2023-12-20T21:06:36;14;8;6
44871;PMS7003;30602;51.060;17.226;2023-12-20T21:09:57;9;7;5
44871;PMS7003;30602;51.060;17.226;2023-12-20T21:13:18;5;3;3
44871;PMS7003;30602;51.060;17.226;2023-12-20T21:17:07;8;8;5
44871;PMS7003;30602;51.060;17.226;2023-12-20T21:20:55;14;9;5
44871;PMS7003;30602;51.060;17.226;2023-12-20T21:24:29;11;10;7
44871;PMS7003;30602;51.060;17.226;2023-12-20T21:28:13;12;10;7
44871;PMS7003;30602;51.060;17.226;2023-12-20T21:32:19;13;10;7
44871;PMS7003;30602;51.060;17.226;2023-12-20T21:35:42;13;13;8
44871;PMS7003;30602;51.060;17.226;2023-12-20T21:39:07;20;18;11
44871;PMS7003;30602;51.060;17.226;2023-12-20T21:43:02;10;10;7
44871;PMS7003;30602;51.060;17.226;2023-12-20T21:46:24;14;11;8
44871;PMS7003;30602;51.060;17.226;2023-12-20T21:49:56;20;13;11
44871;PMS7003;30602;51.060;17.226;2023-12-20T21:53:16;17;17;11
44871;PMS7003;30602;51.060;17.226;2023-12-20T21:56:42;25;18;13
44871;PMS7003;30602;51.060;17.226;2023-12-20T22:04:20;14;12;7
44871;PMS7003;30602;51.060;17.226;2023-12-20T22:07:42;19;13;9
44871;PMS7003;30602;51.060;17.226;2023-12-20T22:11:35;11;9;6
44871;PMS7003;30602;51.060;17.226;2023-12-20T22:15:03;9;7;6
44871;PMS7003;30602;51.060;17.226;2023-12-20T22:18:30;18;18;12
44871;PMS7003;30602;51.060;17.226;2023-12-20T22:26:15;18;18;9
44871;PMS7003;30602;51.060;17.226;2023-12-20T22:29:57;9;7;3
44871;PMS7003;30602;51.060;17.226;2023-12-20T22:33:48;5;4;2
44871;PMS7003;30602;51.060;17.226;2023-12-20T22:37:36;3;3;2
44871;PMS7003;30602;51.060;17.226;2023-12-20T22:41:43;7;4;3
44871;PMS7003;30602;51.060;17.226;2023-12-20T22:45:34;13;12;7
44871;PMS7003;30602;51.060;17.226;2023-12-20T22:53:35;26;22;12
44871;PMS7003;30602;51.060;17.226;2023-12-20T22:57:28;19;14;8
44871;PMS7003;30602;51.060;17.226;2023-12-20T23:01:17;49;38;23
44871;PMS7003;30602;51.060;17.226;2023-12-20T23:05:13;9;7;5
44871;PMS7003;30602;51.060;17.226;2023-12-20T23:08:54;19;14;9
44871;PMS7003;30602;51.060;17.226;2023-12-20T23:12:54;28;24;13
44871;PMS7003;30602;51.060;17.226;2023-12-20T23:16:18;17;13;7
44871;PMS7003;30602;51.060;17.226;2023-12-20T23:20:15;30;24;12
44871;PMS7003;30602;51.060;17.226;2023-12-20T23:24:01;11;10;5
44871;PMS7003;30602;51.060;17.226;2023-12-20T23:27:46;8;6;4
44871;PMS7003;30602;51.060;17.226;2023-12-20T23:31:56;32;27;13
44871;PMS7003;30602;51.060;17.226;2023-12-20T23:35:42;11;10;6
44871;PMS7003;30602;51.060;17.226;2023-12-20T23:39:39;9;7;5
44871;PMS7003;30602;51.060;17.226;2023-12-20T23:43:55;20;18;11
44871;PMS7003;30602;51.060;17.226;2023-12-20T23:47:37;16;14;9
44871;PMS7003;30602;51.060;17.226;2023-12-20T23:51:09;15;11;9
44871;PMS7003;30602;51.060;17.226;2023-12-20T23:54:33;5;5;3
44871;PMS7003;30602;51.060;17.226;2023-12-20T23:58:48;18;14;10
